Terminal Aerodrome Forecast
Issued by NWS

Home | Current Version | Previous Version | Text Only | Print | Product List | Glossary On
Versions: 1 2 3 4 5 6 7 8 9 10 11 12 13 14 15 16 17 18 19 20 21
672
FTUS46 KLOX 251307 AAA
TAFWJF
TAF AMD
KWJF 251307Z 2513/2612 25012KT P6SM SCT025 BKN120
     FM252000 23017G25KT 5SM FU BKN035 BKN120
     FM260500 23012KT P6SM SCT020 SCT120=

USA.gov is the U.S. government's official web portal to all federal, state and local government web resources and services.